sensor_id;sensor_type;location;lat;lon;timestamp;temperature;humidity
22779;DHT22;11556;51.194;3.800;2024-02-15T00:02:13;13.70;99.90
22779;DHT22;11556;51.194;3.800;2024-02-15T00:04:39;13.90;99.90
22779;DHT22;11556;51.194;3.800;2024-02-15T00:07:05;13.90;99.90
22779;DHT22;11556;51.194;3.800;2024-02-15T00:09:31;13.90;99.90
22779;DHT22;11556;51.194;3.800;2024-02-15T00:11:56;13.90;99.90
22779;DHT22;11556;51.194;3.800;2024-02-15T00:14:22;14.00;99.90
22779;DHT22;11556;51.194;3.800;2024-02-15T00:16:48;14.00;99.90
22779;DHT22;11556;51.194;3.800;2024-02-15T00:19:14;14.00;99.90
22779;DHT22;11556;51.194;3.800;2024-02-15T00:21:45;14.00;99.90
22779;DHT22;11556;51.194;3.800;2024-02-15T00:24:12;13.80;99.90
22779;DHT22;11556;51.194;3.800;2024-02-15T00:26:38;13.80;99.90
22779;DHT22;11556;51.194;3.800;2024-02-15T00:29:03;13.90;99.90
22779;DHT22;11556;51.194;3.800;2024-02-15T00:31:29;13.80;99.90
22779;DHT22;11556;51.194;3.800;2024-02-15T00:33:55;13.80;99.90
22779;DHT22;11556;51.194;3.800;2024-02-15T00:36:20;13.80;99.90
22779;DHT22;11556;51.194;3.800;2024-02-15T00:38:46;13.70;99.90
22779;DHT22;11556;51.194;3.800;2024-02-15T00:41:12;13.70;99.90
22779;DHT22;11556;51.194;3.800;2024-02-15T00:43:38;13.80;99.90
22779;DHT22;11556;51.194;3.800;2024-02-15T00:46:03;13.80;99.90
22779;DHT22;11556;51.194;3.800;2024-02-15T00:48:29;13.70;99.90
22779;DHT22;11556;51.194;3.800;2024-02-15T00:50:55;13.80;99.90
22779;DHT22;11556;51.194;3.800;2024-02-15T00:53:21;13.80;99.90
22779;DHT22;11556;51.194;3.800;2024-02-15T00:55:47;13.90;99.90
22779;DHT22;11556;51.194;3.800;2024-02-15T00:58:13;13.90;99.90
22779;DHT22;11556;51.194;3.800;2024-02-15T01:00:38;14.00;99.90
22779;DHT22;11556;51.194;3.800;2024-02-15T01:03:04;14.00;99.90
22779;DHT22;11556;51.194;3.800;2024-02-15T01:05:30;14.00;99.90
22779;DHT22;11556;51.194;3.800;2024-02-15T01:07:56;14.10;99.90
22779;DHT22;11556;51.194;3.800;2024-02-15T01:10:22;14.10;99.90
22779;DHT22;11556;51.194;3.800;2024-02-15T01:12:49;14.10;99.90
22779;DHT22;11556;51.194;3.800;2024-02-15T01:15:15;14.10;99.90
22779;DHT22;11556;51.194;3.800;2024-02-15T01:17:45;14.20;99.90
22779;DHT22;11556;51.194;3.800;2024-02-15T01:20:11;14.20;99.90
22779;DHT22;11556;51.194;3.800;2024-02-15T01:22:37;14.10;99.90
22779;DHT22;11556;51.194;3.800;2024-02-15T01:25:03;14.10;99.90
22779;DHT22;11556;51.194;3.800;2024-02-15T01:27:29;14.00;99.90
22779;DHT22;11556;51.194;3.800;2024-02-15T01:29:56;14.10;99.90
22779;DHT22;11556;51.194;3.800;2024-02-15T01:32:21;14.10;99.90
22779;DHT22;11556;51.194;3.800;2024-02-15T01:34:47;14.10;99.90
22779;DHT22;11556;51.194;3.800;2024-02-15T01:37:12;14.10;99.90
22779;DHT22;11556;51.194;3.800;2024-02-15T01:39:38;14.00;99.90
22779;DHT22;11556;51.194;3.800;2024-02-15T01:42:04;13.90;99.90
22779;DHT22;11556;51.194;3.800;2024-02-15T01:44:30;13.90;99.90
22779;DHT22;11556;51.194;3.800;2024-02-15T01:46:57;13.90;99.90
22779;DHT22;11556;51.194;3.800;2024-02-15T01:49:24;13.70;99.90
22779;DHT22;11556;51.194;3.800;2024-02-15T01:51:52;13.70;99.90
22779;DHT22;11556;51.194;3.800;2024-02-15T01:54:19;13.60;99.90
22779;DHT22;11556;51.194;3.800;2024-02-15T01:56:45;13.50;99.90
22779;DHT22;11556;51.194;3.800;2024-02-15T01:59:13;13.60;99.90
22779;DHT22;11556;51.194;3.800;2024-02-15T02:01:41;13.60;99.90
22779;DHT22;11556;51.194;3.800;2024-02-15T02:04:07;13.50;99.90
22779;DHT22;11556;51.194;3.800;2024-02-15T02:06:34;13.50;99.90
22779;DHT22;11556;51.194;3.800;2024-02-15T02:09:00;13.50;99.90
22779;DHT22;11556;51.194;3.800;2024-02-15T02:11:27;13.60;99.90
22779;DHT22;11556;51.194;3.800;2024-02-15T02:13:55;13.50;99.90
22779;DHT22;11556;51.194;3.800;2024-02-15T02:16:33;13.50;99.90
22779;DHT22;11556;51.194;3.800;2024-02-15T02:19:04;13.60;99.90
22779;DHT22;11556;51.194;3.800;2024-02-15T02:21:35;13.50;99.90
22779;DHT22;11556;51.194;3.800;2024-02-15T02:24:03;13.40;99.90
22779;DHT22;11556;51.194;3.800;2024-02-15T02:26:34;13.40;99.90
22779;DHT22;11556;51.194;3.800;2024-02-15T02:29:02;13.40;99.90
22779;DHT22;11556;51.194;3.800;2024-02-15T02:31:39;13.40;99.90
22779;DHT22;11556;51.194;3.800;2024-02-15T02:34:05;13.30;99.90
22779;DHT22;11556;51.194;3.800;2024-02-15T02:36:33;13.30;99.90
22779;DHT22;11556;51.194;3.800;2024-02-15T02:38:58;13.20;99.90
22779;DHT22;11556;51.194;3.800;2024-02-15T02:41:27;13.30;99.90
22779;DHT22;11556;51.194;3.800;2024-02-15T02:43:55;13.30;99.90
22779;DHT22;11556;51.194;3.800;2024-02-15T02:46:20;13.20;99.90
22779;DHT22;11556;51.194;3.800;2024-02-15T02:48:46;13.30;99.90
22779;DHT22;11556;51.194;3.800;2024-02-15T02:51:12;13.20;99.90
22779;DHT22;11556;51.194;3.800;2024-02-15T02:53:37;13.20;99.90
22779;DHT22;11556;51.194;3.800;2024-02-15T02:56:03;13.30;99.90
22779;DHT22;11556;51.194;3.800;2024-02-15T02:58:29;13.30;99.90
22779;DHT22;11556;51.194;3.800;2024-02-15T03:00:55;13.20;99.90
22779;DHT22;11556;51.194;3.800;2024-02-15T03:03:21;13.30;99.90
22779;DHT22;11556;51.194;3.800;2024-02-15T03:05:49;13.20;99.90
22779;DHT22;11556;51.194;3.800;2024-02-15T03:08:15;13.20;99.90
22779;DHT22;11556;51.194;3.800;2024-02-15T03:10:42;13.10;99.90
22779;DHT22;11556;51.194;3.800;2024-02-15T03:13:08;13.20;99.90
22779;DHT22;11556;51.194;3.800;2024-02-15T03:15:37;13.20;99.90
22779;DHT22;11556;51.194;3.800;2024-02-15T03:18:03;13.10;99.90
22779;DHT22;11556;51.194;3.800;2024-02-15T03:20:32;13.00;99.90
22779;DHT22;11556;51.194;3.800;2024-02-15T03:23:00;13.10;99.90
22779;DHT22;11556;51.194;3.800;2024-02-15T03:25:27;13.10;99.90
22779;DHT22;11556;51.194;3.800;2024-02-15T03:27:58;13.10;99.90
22779;DHT22;11556;51.194;3.800;2024-02-15T03:30:26;13.20;99.90
22779;DHT22;11556;51.194;3.800;2024-02-15T03:32:53;13.20;99.90
22779;DHT22;11556;51.194;3.800;2024-02-15T03:35:20;13.30;99.90
22779;DHT22;11556;51.194;3.800;2024-02-15T03:37:48;13.20;99.90
22779;DHT22;11556;51.194;3.800;2024-02-15T03:40:16;13.20;99.90
22779;DHT22;11556;51.194;3.800;2024-02-15T03:42:42;13.30;99.90
22779;DHT22;11556;51.194;3.800;2024-02-15T03:45:08;13.20;99.90
22779;DHT22;11556;51.194;3.800;2024-02-15T03:47:37;13.20;99.90
22779;DHT22;11556;51.194;3.800;2024-02-15T03:50:04;13.20;99.90
22779;DHT22;11556;51.194;3.800;2024-02-15T03:52:30;13.20;99.90
22779;DHT22;11556;51.194;3.800;2024-02-15T03:54:57;13.20;99.90
22779;DHT22;11556;51.194;3.800;2024-02-15T03:57:23;13.20;99.90
22779;DHT22;11556;51.194;3.800;2024-02-15T03:59:49;13.20;99.90
22779;DHT22;11556;51.194;3.800;2024-02-15T04:02:19;13.20;99.90
22779;DHT22;11556;51.194;3.800;2024-02-15T04:04:45;13.20;99.90
22779;DHT22;11556;51.194;3.800;2024-02-15T04:07:16;13.30;99.90
22779;DHT22;11556;51.194;3.800;2024-02-15T04:09:50;13.30;99.90
22779;DHT22;11556;51.194;3.800;2024-02-15T04:12:18;13.20;99.90
22779;DHT22;11556;51.194;3.800;2024-02-15T04:14:44;13.20;99.90
22779;DHT22;11556;51.194;3.800;2024-02-15T04:17:13;13.20;99.90
22779;DHT22;11556;51.194;3.800;2024-02-15T04:19:41;13.10;99.90
22779;DHT22;11556;51.194;3.800;2024-02-15T04:22:06;13.20;99.90
22779;DHT22;11556;51.194;3.800;2024-02-15T04:24:36;13.10;99.90
22779;DHT22;11556;51.194;3.800;2024-02-15T04:27:06;13.20;99.90
22779;DHT22;11556;51.194;3.800;2024-02-15T04:29:34;13.10;99.90
22779;DHT22;11556;51.194;3.800;2024-02-15T04:32:00;13.10;99.90
22779;DHT22;11556;51.194;3.800;2024-02-15T04:34:25;13.20;99.90
22779;DHT22;11556;51.194;3.800;2024-02-15T04:36:51;13.20;99.90
22779;DHT22;11556;51.194;3.800;2024-02-15T04:39:21;13.20;99.90
22779;DHT22;11556;51.194;3.800;2024-02-15T04:41:53;13.20;99.90
22779;DHT22;11556;51.194;3.800;2024-02-15T04:44:20;13.20;99.90
22779;DHT22;11556;51.194;3.800;2024-02-15T04:46:49;13.10;99.90
22779;DHT22;11556;51.194;3.800;2024-02-15T04:49:15;13.20;99.90
22779;DHT22;11556;51.194;3.800;2024-02-15T04:51:41;13.20;99.90
22779;DHT22;11556;51.194;3.800;2024-02-15T04:54:10;13.10;99.90
22779;DHT22;11556;51.194;3.800;2024-02-15T04:56:42;13.20;99.90
22779;DHT22;11556;51.194;3.800;2024-02-15T04:59:10;13.30;99.90
22779;DHT22;11556;51.194;3.800;2024-02-15T05:01:40;13.20;99.90
22779;DHT22;11556;51.194;3.800;2024-02-15T05:04:09;13.30;99.90
22779;DHT22;11556;51.194;3.800;2024-02-15T05:06:35;13.30;99.90
22779;DHT22;11556;51.194;3.800;2024-02-15T05:09:02;13.30;99.90
22779;DHT22;11556;51.194;3.800;2024-02-15T05:11:40;13.30;99.90
22779;DHT22;11556;51.194;3.800;2024-02-15T05:14:07;13.20;99.90
22779;DHT22;11556;51.194;3.800;2024-02-15T05:16:33;13.30;99.90
22779;DHT22;11556;51.194;3.800;2024-02-15T05:18:59;13.20;99.90
22779;DHT22;11556;51.194;3.800;2024-02-15T05:21:25;13.30;99.90
22779;DHT22;11556;51.194;3.800;2024-02-15T05:23:50;13.30;99.90
22779;DHT22;11556;51.194;3.800;2024-02-15T05:26:18;13.40;99.90
22779;DHT22;11556;51.194;3.800;2024-02-15T05:28:49;13.40;99.90
22779;DHT22;11556;51.194;3.800;2024-02-15T05:31:19;13.40;99.90
22779;DHT22;11556;51.194;3.800;2024-02-15T05:33:49;13.40;99.90
22779;DHT22;11556;51.194;3.800;2024-02-15T05:36:16;13.40;99.90
22779;DHT22;11556;51.194;3.800;2024-02-15T05:38:46;13.50;99.90
22779;DHT22;11556;51.194;3.800;2024-02-15T05:41:12;13.50;99.90
22779;DHT22;11556;51.194;3.800;2024-02-15T05:43:39;13.60;99.90
22779;DHT22;11556;51.194;3.800;2024-02-15T05:46:07;13.50;99.90
22779;DHT22;11556;51.194;3.800;2024-02-15T05:48:33;13.60;99.90
22779;DHT22;11556;51.194;3.800;2024-02-15T05:51:01;13.60;99.90
22779;DHT22;11556;51.194;3.800;2024-02-15T05:53:27;13.60;99.90
22779;DHT22;11556;51.194;3.800;2024-02-15T05:55:53;13.70;99.90
22779;DHT22;11556;51.194;3.800;2024-02-15T05:58:18;13.70;99.90
22779;DHT22;11556;51.194;3.800;2024-02-15T06:00:44;13.60;99.90
22779;DHT22;11556;51.194;3.800;2024-02-15T06:03:13;13.70;99.90
22779;DHT22;11556;51.194;3.800;2024-02-15T06:05:39;13.70;99.90
22779;DHT22;11556;51.194;3.800;2024-02-15T06:08:05;13.60;99.90
22779;DHT22;11556;51.194;3.800;2024-02-15T06:10:31;13.60;99.90
22779;DHT22;11556;51.194;3.800;2024-02-15T06:12:57;13.80;99.90
22779;DHT22;11556;51.194;3.800;2024-02-15T06:15:26;13.90;99.90
22779;DHT22;11556;51.194;3.800;2024-02-15T06:17:52;13.90;99.90
22779;DHT22;11556;51.194;3.800;2024-02-15T06:20:18;13.90;99.90
22779;DHT22;11556;51.194;3.800;2024-02-15T06:22:45;13.90;99.90
22779;DHT22;11556;51.194;3.800;2024-02-15T06:25:12;13.90;99.90
22779;DHT22;11556;51.194;3.800;2024-02-15T06:27:38;14.00;99.90
22779;DHT22;11556;51.194;3.800;2024-02-15T06:30:10;14.00;99.90
22779;DHT22;11556;51.194;3.800;2024-02-15T06:32:54;13.90;99.90
22779;DHT22;11556;51.194;3.800;2024-02-15T06:35:39;14.00;99.90
22779;DHT22;11556;51.194;3.800;2024-02-15T06:38:23;13.90;99.90
22779;DHT22;11556;51.194;3.800;2024-02-15T06:41:07;13.90;99.90
22779;DHT22;11556;51.194;3.800;2024-02-15T06:43:34;13.90;99.90
22779;DHT22;11556;51.194;3.800;2024-02-15T06:46:01;13.90;99.90
22779;DHT22;11556;51.194;3.800;2024-02-15T06:48:27;13.90;99.90
22779;DHT22;11556;51.194;3.800;2024-02-15T06:50:52;13.90;99.90
22779;DHT22;11556;51.194;3.800;2024-02-15T06:53:18;13.90;99.90
22779;DHT22;11556;51.194;3.800;2024-02-15T06:55:46;13.90;99.90
22779;DHT22;11556;51.194;3.800;2024-02-15T06:58:15;13.90;99.90
22779;DHT22;11556;51.194;3.800;2024-02-15T07:00:42;14.00;99.90
22779;DHT22;11556;51.194;3.800;2024-02-15T07:03:08;14.00;99.90
22779;DHT22;11556;51.194;3.800;2024-02-15T07:05:34;14.00;99.90
22779;DHT22;11556;51.194;3.800;2024-02-15T07:08:01;14.10;99.90
22779;DHT22;11556;51.194;3.800;2024-02-15T07:10:26;14.00;99.90
22779;DHT22;11556;51.194;3.800;2024-02-15T07:12:52;13.90;99.90
22779;DHT22;11556;51.194;3.800;2024-02-15T07:15:17;13.90;99.90
22779;DHT22;11556;51.194;3.800;2024-02-15T07:17:43;13.90;99.90
22779;DHT22;11556;51.194;3.800;2024-02-15T07:20:12;13.90;99.90
22779;DHT22;11556;51.194;3.800;2024-02-15T07:22:43;13.80;99.90
22779;DHT22;11556;51.194;3.800;2024-02-15T07:25:09;13.80;99.90
22779;DHT22;11556;51.194;3.800;2024-02-15T07:27:35;13.70;99.90
22779;DHT22;11556;51.194;3.800;2024-02-15T07:30:01;13.60;99.90
22779;DHT22;11556;51.194;3.800;2024-02-15T07:32:28;13.60;99.90
22779;DHT22;11556;51.194;3.800;2024-02-15T07:34:54;13.60;99.90
22779;DHT22;11556;51.194;3.800;2024-02-15T07:37:20;13.60;99.90
22779;DHT22;11556;51.194;3.800;2024-02-15T07:39:49;13.60;99.90
22779;DHT22;11556;51.194;3.800;2024-02-15T07:42:15;13.50;99.90
22779;DHT22;11556;51.194;3.800;2024-02-15T07:44:40;13.50;99.90
22779;DHT22;11556;51.194;3.800;2024-02-15T07:47:06;13.50;99.90
22779;DHT22;11556;51.194;3.800;2024-02-15T07:49:32;13.40;99.90
22779;DHT22;11556;51.194;3.800;2024-02-15T07:51:59;13.50;99.90
22779;DHT22;11556;51.194;3.800;2024-02-15T07:54:25;13.50;99.90
22779;DHT22;11556;51.194;3.800;2024-02-15T07:56:51;13.50;99.90
22779;DHT22;11556;51.194;3.800;2024-02-15T07:59:17;13.60;99.90
22779;DHT22;11556;51.194;3.800;2024-02-15T08:01:43;13.50;99.90
22779;DHT22;11556;51.194;3.800;2024-02-15T08:04:09;13.50;99.90
22779;DHT22;11556;51.194;3.800;2024-02-15T08:06:34;13.60;99.90
22779;DHT22;11556;51.194;3.800;2024-02-15T08:09:02;13.70;99.90
22779;DHT22;11556;51.194;3.800;2024-02-15T08:11:30;13.60;99.90
22779;DHT22;11556;51.194;3.800;2024-02-15T08:13:56;13.70;99.90
22779;DHT22;11556;51.194;3.800;2024-02-15T08:16:24;13.70;99.90
22779;DHT22;11556;51.194;3.800;2024-02-15T08:18:50;13.70;99.90
22779;DHT22;11556;51.194;3.800;2024-02-15T08:21:18;13.70;99.90
22779;DHT22;11556;51.194;3.800;2024-02-15T08:23:44;13.70;99.90
22779;DHT22;11556;51.194;3.800;2024-02-15T08:26:10;13.70;99.90
22779;DHT22;11556;51.194;3.800;2024-02-15T08:28:38;13.70;99.90
22779;DHT22;11556;51.194;3.800;2024-02-15T08:31:04;13.70;99.90
22779;DHT22;11556;51.194;3.800;2024-02-15T08:33:30;13.60;99.90
22779;DHT22;11556;51.194;3.800;2024-02-15T08:35:56;13.70;99.90
22779;DHT22;11556;51.194;3.800;2024-02-15T08:38:22;13.80;99.90
22779;DHT22;11556;51.194;3.800;2024-02-15T08:40:48;13.90;99.90
22779;DHT22;11556;51.194;3.800;2024-02-15T08:43:14;14.00;99.90
22779;DHT22;11556;51.194;3.800;2024-02-15T08:45:41;14.00;99.90
22779;DHT22;11556;51.194;3.800;2024-02-15T08:48:07;14.00;99.90
22779;DHT22;11556;51.194;3.800;2024-02-15T08:50:33;14.10;99.90
22779;DHT22;11556;51.194;3.800;2024-02-15T08:52:59;14.20;99.90
22779;DHT22;11556;51.194;3.800;2024-02-15T08:55:24;14.40;99.90
22779;DHT22;11556;51.194;3.800;2024-02-15T08:57:52;14.30;99.90
22779;DHT22;11556;51.194;3.800;2024-02-15T09:00:18;14.20;99.90
22779;DHT22;11556;51.194;3.800;2024-02-15T09:02:48;14.30;99.90
22779;DHT22;11556;51.194;3.800;2024-02-15T09:05:14;14.30;99.90
22779;DHT22;11556;51.194;3.800;2024-02-15T09:07:41;14.30;99.90
22779;DHT22;11556;51.194;3.800;2024-02-15T09:10:11;14.40;99.90
22779;DHT22;11556;51.194;3.800;2024-02-15T09:12:37;14.30;99.90
22779;DHT22;11556;51.194;3.800;2024-02-15T09:15:09;14.40;99.90
22779;DHT22;11556;51.194;3.800;2024-02-15T09:17:36;14.60;99.90
22779;DHT22;11556;51.194;3.800;2024-02-15T09:20:11;14.70;99.90
22779;DHT22;11556;51.194;3.800;2024-02-15T09:22:46;14.90;99.90
22779;DHT22;11556;51.194;3.800;2024-02-15T09:25:14;15.00;99.90
22779;DHT22;11556;51.194;3.800;2024-02-15T09:27:40;15.20;99.90
22779;DHT22;11556;51.194;3.800;2024-02-15T09:30:07;15.30;99.90
22779;DHT22;11556;51.194;3.800;2024-02-15T09:32:38;15.40;99.90
22779;DHT22;11556;51.194;3.800;2024-02-15T09:35:05;15.50;99.90
22779;DHT22;11556;51.194;3.800;2024-02-15T09:37:34;15.40;99.90
22779;DHT22;11556;51.194;3.800;2024-02-15T09:40:00;15.50;99.90
22779;DHT22;11556;51.194;3.800;2024-02-15T09:42:31;15.40;99.90
22779;DHT22;11556;51.194;3.800;2024-02-15T09:45:00;15.30;99.90
22779;DHT22;11556;51.194;3.800;2024-02-15T09:47:31;15.40;99.90
22779;DHT22;11556;51.194;3.800;2024-02-15T09:49:59;15.50;99.90
22779;DHT22;11556;51.194;3.800;2024-02-15T09:52:25;15.60;99.90
22779;DHT22;11556;51.194;3.800;2024-02-15T09:54:51;15.80;99.90
22779;DHT22;11556;51.194;3.800;2024-02-15T09:57:18;15.90;99.90
22779;DHT22;11556;51.194;3.800;2024-02-15T09:59:45;16.00;99.90
22779;DHT22;11556;51.194;3.800;2024-02-15T10:02:11;16.10;99.90
22779;DHT22;11556;51.194;3.800;2024-02-15T10:04:39;16.10;99.90
22779;DHT22;11556;51.194;3.800;2024-02-15T10:07:05;16.20;99.90
22779;DHT22;11556;51.194;3.800;2024-02-15T10:09:34;16.30;99.90
22779;DHT22;11556;51.194;3.800;2024-02-15T10:12:02;16.30;99.90
22779;DHT22;11556;51.194;3.800;2024-02-15T10:14:32;16.40;99.90
22779;DHT22;11556;51.194;3.800;2024-02-15T10:17:06;16.40;99.90
22779;DHT22;11556;51.194;3.800;2024-02-15T10:19:35;16.50;99.90
22779;DHT22;11556;51.194;3.800;2024-02-15T10:22:10;16.60;99.90
22779;DHT22;11556;51.194;3.800;2024-02-15T10:24:37;16.70;99.90
22779;DHT22;11556;51.194;3.800;2024-02-15T10:27:05;16.60;99.90
22779;DHT22;11556;51.194;3.800;2024-02-15T10:29:36;16.70;99.90
22779;DHT22;11556;51.194;3.800;2024-02-15T10:32:04;16.80;99.90
22779;DHT22;11556;51.194;3.800;2024-02-15T10:34:30;16.80;99.90
22779;DHT22;11556;51.194;3.800;2024-02-15T10:37:15;16.80;99.90
22779;DHT22;11556;51.194;3.800;2024-02-15T10:40:04;16.60;99.90
22779;DHT22;11556;51.194;3.800;2024-02-15T10:42:33;16.60;99.90
22779;DHT22;11556;51.194;3.800;2024-02-15T10:45:05;16.80;99.90
22779;DHT22;11556;51.194;3.800;2024-02-15T10:47:34;17.30;99.90
22779;DHT22;11556;51.194;3.800;2024-02-15T10:50:02;17.80;99.90
22779;DHT22;11556;51.194;3.800;2024-02-15T10:52:31;18.20;99.90
22779;DHT22;11556;51.194;3.800;2024-02-15T10:55:03;19.00;99.90
22779;DHT22;11556;51.194;3.800;2024-02-15T10:57:31;19.30;99.90
22779;DHT22;11556;51.194;3.800;2024-02-15T11:00:02;19.70;99.90
22779;DHT22;11556;51.194;3.800;2024-02-15T11:02:42;19.70;99.90
22779;DHT22;11556;51.194;3.800;2024-02-15T11:05:09;19.50;99.90
22779;DHT22;11556;51.194;3.800;2024-02-15T11:07:36;19.80;99.90
22779;DHT22;11556;51.194;3.800;2024-02-15T11:10:03;19.80;99.90
22779;DHT22;11556;51.194;3.800;2024-02-15T11:12:36;19.80;99.90
22779;DHT22;11556;51.194;3.800;2024-02-15T11:15:03;19.60;99.90
22779;DHT22;11556;51.194;3.800;2024-02-15T11:22:58;21.60;99.90
22779;DHT22;11556;51.194;3.800;2024-02-15T11:25:50;22.10;99.90
22779;DHT22;11556;51.194;3.800;2024-02-15T11:30:51;21.70;99.90
22779;DHT22;11556;51.194;3.800;2024-02-15T11:33:31;21.30;99.90
22779;DHT22;11556;51.194;3.800;2024-02-15T11:36:03;21.00;99.90
22779;DHT22;11556;51.194;3.800;2024-02-15T11:38:33;20.70;99.90
22779;DHT22;11556;51.194;3.800;2024-02-15T11:41:08;20.20;99.90
22779;DHT22;11556;51.194;3.800;2024-02-15T11:46:17;19.50;99.90
22779;DHT22;11556;51.194;3.800;2024-02-15T11:48:51;19.40;99.90
22779;DHT22;11556;51.194;3.800;2024-02-15T11:51:26;19.40;99.90
22779;DHT22;11556;51.194;3.800;2024-02-15T11:54:09;19.40;99.90
22779;DHT22;11556;51.194;3.800;2024-02-15T11:59:10;19.10;99.90
22779;DHT22;11556;51.194;3.800;2024-02-15T12:01:44;19.00;99.90
22779;DHT22;11556;51.194;3.800;2024-02-15T12:04:31;19.10;99.90
22779;DHT22;11556;51.194;3.800;2024-02-15T12:07:16;18.60;99.90
22779;DHT22;11556;51.194;3.800;2024-02-15T12:10:00;19.10;99.90
22779;DHT22;11556;51.194;3.800;2024-02-15T12:12:51;19.50;99.90
22779;DHT22;11556;51.194;3.800;2024-02-15T12:15:35;19.60;99.90
22779;DHT22;11556;51.194;3.800;2024-02-15T12:18:19;19.00;99.90
22779;DHT22;11556;51.194;3.800;2024-02-15T12:21:04;18.80;99.90
22779;DHT22;11556;51.194;3.800;2024-02-15T12:23:31;18.60;99.90
22779;DHT22;11556;51.194;3.800;2024-02-15T12:26:00;18.40;99.90
22779;DHT22;11556;51.194;3.800;2024-02-15T12:28:25;18.30;99.90
22779;DHT22;11556;51.194;3.800;2024-02-15T12:30:57;18.40;99.90
22779;DHT22;11556;51.194;3.800;2024-02-15T12:33:23;18.10;99.90
22779;DHT22;11556;51.194;3.800;2024-02-15T12:35:49;17.90;99.90
22779;DHT22;11556;51.194;3.800;2024-02-15T12:38:18;17.80;99.90
22779;DHT22;11556;51.194;3.800;2024-02-15T12:40:44;18.00;99.90
22779;DHT22;11556;51.194;3.800;2024-02-15T12:43:12;17.90;99.90
22779;DHT22;11556;51.194;3.800;2024-02-15T12:45:40;17.90;99.90
22779;DHT22;11556;51.194;3.800;2024-02-15T12:48:07;17.90;99.90
22779;DHT22;11556;51.194;3.800;2024-02-15T12:50:33;17.80;99.90
22779;DHT22;11556;51.194;3.800;2024-02-15T12:52:59;17.70;99.90
22779;DHT22;11556;51.194;3.800;2024-02-15T12:55:29;17.80;99.90
22779;DHT22;11556;51.194;3.800;2024-02-15T12:58:00;17.70;99.90
22779;DHT22;11556;51.194;3.800;2024-02-15T13:00:31;17.50;99.90
22779;DHT22;11556;51.194;3.800;2024-02-15T13:03:00;17.40;99.90
22779;DHT22;11556;51.194;3.800;2024-02-15T13:05:28;17.50;99.90
22779;DHT22;11556;51.194;3.800;2024-02-15T13:07:55;17.60;99.90
22779;DHT22;11556;51.194;3.800;2024-02-15T13:10:22;17.80;99.90
22779;DHT22;11556;51.194;3.800;2024-02-15T13:12:48;17.80;99.90
22779;DHT22;11556;51.194;3.800;2024-02-15T13:15:15;17.90;99.90
22779;DHT22;11556;51.194;3.800;2024-02-15T13:17:49;17.70;99.90
22779;DHT22;11556;51.194;3.800;2024-02-15T13:20:17;17.80;99.90
22779;DHT22;11556;51.194;3.800;2024-02-15T13:22:46;17.90;99.90
22779;DHT22;11556;51.194;3.800;2024-02-15T13:25:15;17.90;99.90
22779;DHT22;11556;51.194;3.800;2024-02-15T13:27:46;17.70;99.90
22779;DHT22;11556;51.194;3.800;2024-02-15T13:30:13;17.80;99.90
22779;DHT22;11556;51.194;3.800;2024-02-15T13:32:40;17.80;99.90
22779;DHT22;11556;51.194;3.800;2024-02-15T13:35:09;17.60;99.90
22779;DHT22;11556;51.194;3.800;2024-02-15T13:37:48;17.60;99.90
22779;DHT22;11556;51.194;3.800;2024-02-15T13:40:14;17.50;99.90
22779;DHT22;11556;51.194;3.800;2024-02-15T13:42:47;17.50;99.90
22779;DHT22;11556;51.194;3.800;2024-02-15T13:45:21;17.40;99.90
22779;DHT22;11556;51.194;3.800;2024-02-15T13:47:50;17.50;99.90
22779;DHT22;11556;51.194;3.800;2024-02-15T13:50:17;17.60;99.90
22779;DHT22;11556;51.194;3.800;2024-02-15T13:52:44;17.70;99.90
22779;DHT22;11556;51.194;3.800;2024-02-15T13:55:12;17.70;99.90
22779;DHT22;11556;51.194;3.800;2024-02-15T13:57:43;17.70;99.90
22779;DHT22;11556;51.194;3.800;2024-02-15T14:00:13;17.60;99.90
22779;DHT22;11556;51.194;3.800;2024-02-15T14:02:43;17.50;99.90
22779;DHT22;11556;51.194;3.800;2024-02-15T14:05:09;17.30;99.90
22779;DHT22;11556;51.194;3.800;2024-02-15T14:07:37;17.30;99.90
22779;DHT22;11556;51.194;3.800;2024-02-15T14:10:04;17.30;99.90
22779;DHT22;11556;51.194;3.800;2024-02-15T14:12:30;17.20;99.90
22779;DHT22;11556;51.194;3.800;2024-02-15T14:14:56;17.20;99.90
22779;DHT22;11556;51.194;3.800;2024-02-15T14:17:22;17.10;99.90
22779;DHT22;11556;51.194;3.800;2024-02-15T14:19:51;17.20;99.90
22779;DHT22;11556;51.194;3.800;2024-02-15T14:22:16;17.30;99.90
22779;DHT22;11556;51.194;3.800;2024-02-15T14:24:42;17.30;99.90
22779;DHT22;11556;51.194;3.800;2024-02-15T14:27:10;17.30;99.90
22779;DHT22;11556;51.194;3.800;2024-02-15T14:29:39;17.20;99.90
22779;DHT22;11556;51.194;3.800;2024-02-15T14:32:25;17.10;99.90
22779;DHT22;11556;51.194;3.800;2024-02-15T14:35:08;17.10;99.90
22779;DHT22;11556;51.194;3.800;2024-02-15T14:37:34;17.20;99.90
22779;DHT22;11556;51.194;3.800;2024-02-15T14:40:00;17.40;99.90
22779;DHT22;11556;51.194;3.800;2024-02-15T14:42:25;17.40;99.90
22779;DHT22;11556;51.194;3.800;2024-02-15T14:44:51;17.70;99.90
22779;DHT22;11556;51.194;3.800;2024-02-15T14:47:17;17.90;99.90
22779;DHT22;11556;51.194;3.800;2024-02-15T14:49:44;17.80;99.90
22779;DHT22;11556;51.194;3.800;2024-02-15T14:52:10;17.70;99.90
22779;DHT22;11556;51.194;3.800;2024-02-15T14:54:35;17.60;99.90
22779;DHT22;11556;51.194;3.800;2024-02-15T14:57:01;17.60;99.90
22779;DHT22;11556;51.194;3.800;2024-02-15T14:59:27;17.50;99.90
22779;DHT22;11556;51.194;3.800;2024-02-15T15:01:53;17.40;99.90
22779;DHT22;11556;51.194;3.800;2024-02-15T15:04:18;17.30;99.90
22779;DHT22;11556;51.194;3.800;2024-02-15T15:06:45;17.30;99.90
22779;DHT22;11556;51.194;3.800;2024-02-15T15:09:33;17.40;99.90
22779;DHT22;11556;51.194;3.800;2024-02-15T15:12:17;17.40;99.90
22779;DHT22;11556;51.194;3.800;2024-02-15T15:15:02;17.40;99.90
22779;DHT22;11556;51.194;3.800;2024-02-15T15:17:30;17.40;99.90
22779;DHT22;11556;51.194;3.800;2024-02-15T15:19:55;17.30;99.90
22779;DHT22;11556;51.194;3.800;2024-02-15T15:22:21;17.30;99.90
22779;DHT22;11556;51.194;3.800;2024-02-15T15:24:47;17.30;99.90
22779;DHT22;11556;51.194;3.800;2024-02-15T15:27:12;17.20;99.90
22779;DHT22;11556;51.194;3.800;2024-02-15T15:29:40;17.20;99.90
22779;DHT22;11556;51.194;3.800;2024-02-15T15:32:06;17.10;99.90
22779;DHT22;11556;51.194;3.800;2024-02-15T15:34:33;17.00;99.90
22779;DHT22;11556;51.194;3.800;2024-02-15T15:36:59;16.90;99.90
22779;DHT22;11556;51.194;3.800;2024-02-15T15:39:25;16.80;99.90
22779;DHT22;11556;51.194;3.800;2024-02-15T15:41:52;16.70;99.90
22779;DHT22;11556;51.194;3.800;2024-02-15T15:44:19;16.60;99.90
22779;DHT22;11556;51.194;3.800;2024-02-15T15:46:45;16.60;99.90
22779;DHT22;11556;51.194;3.800;2024-02-15T15:49:11;16.60;99.90
22779;DHT22;11556;51.194;3.800;2024-02-15T15:51:41;16.50;99.90